• Join FlightAware (Why Join?)
  • Login
  • US Flag 
03:41AM EDT


 

Airport Tracker/Info


-or-


 

Live Flight TrackerFlight Track Log ✈ NKS138 ✈ 13-May-2013 ✈ KMCO - KACY

Flight Track Log - Related Links

Times and Time Zones

All times are in EDT time to prevent confusion due to time zone crossing. See the NKS138 flight status page for this flight to view local times or setup timezone preferences in your user account.

Time Position Orientation Groundspeed Altitude Reporting Facility
EDT Latitude Longitude Course Direction KTS MPH feet Rate Location/Type
09:41AM 28.4360 -81.3220 360° North 149 171 200  Level FlightAware
09:41AM 28.4550 -81.3210 North 143 165 1,300 1,800 Climbing FlightAware
09:42AM 28.4770 -81.3190 North 176 203 1,900 1,320 Climbing FlightAware
09:42AM 28.4900 -81.3180 North 193 222 2,300 1,620 Climbing FlightAware
09:42AM 28.5140 -81.3150 North 208 239 3,000 1,620 Climbing FlightAware
09:43AM 28.5310 -81.3130 North 229 264 3,400 1,860 Climbing FlightAware
09:43AM 28.5650 -81.3160 356° North 261 300 4,400 2,700 Climbing FlightAware
09:43AM 28.5970 -81.3210 352° North 263 303 5,900 3,240 Climbing FlightAware
09:44AM 28.6340 -81.3260 353° North 277 319 7,400 3,180 Climbing FlightAware
09:44AM 28.6540 -81.3290 353° North 276 318 8,300 3,000 Climbing FlightAware
09:45AM 28.6870 -81.3330 354° North 276 318 9,400 2,520 Climbing FlightAware
09:45AM 28.7070 -81.3360 353° North 295 339 10,000 1,620 Climbing FlightAware
09:46AM 28.7650 -81.3440 353° North 328 377 10,900 1,440 Climbing FlightAware
09:46AM 28.8410 -81.3540 353° North 374 430 12,100 2,160 Climbing FlightAware
09:47AM 28.9090 -81.3630 353° North 372 428 14,000 2,460 Climbing FlightAware
09:48AM 28.9880 -81.3740 353° North 375 432 15,600 2,820 Climbing FlightAware
09:48AM 29.0560 -81.3840 353° North 361 415 18,000 3,480 Climbing FlightAware
09:49AM 29.1090 -81.4000 345° North 315 362 20,300 2,880 Climbing FlightAware
09:50AM 29.1750 -81.4140 350° North 321 369 22,100 1,620 Climbing FlightAware
09:50AM 29.2400 -81.4200 355° North 341 392 22,600 660 Climbing FlightAware
09:51AM 29.3180 -81.4260 356° North 354 407 23,100 660 Climbing FlightAware
09:52AM 29.4190 -81.4340 356° North 405 466 23,700 840 Climbing FlightAware
09:53AM 29.4990 -81.4400 356° North 423 487 24,500 1,020 Climbing FlightAware
09:53AM 29.5740 -81.4470 355° North 435 501 25,100 600 Climbing FlightAware
09:54AM 29.6840 -81.4570 355° North 432 497 25,500 1,260 Climbing FlightAware
09:55AM 29.7810 -81.4640 356° North 449 517 27,200 1,260 Climbing FlightAware
09:56AM 29.8580 -81.4700 356° North 449 517 27,300 1,260 Climbing FlightAware
09:56AM 29.9390 -81.4770 356° North 452 520 28,800 1,860 Climbing FlightAware
09:57AM 30.0440 -81.4850 356° North 453 521 29,800 1,140 Climbing FlightAware
09:58AM 30.1680 -81.4960 356° North 455 524 30,900 720 Climbing FlightAware
09:59AM 30.2550 -81.5030 356° North 455 524 31,000 60 Climbing FlightAware
10:00AM 30.3410 -81.5090 357° North 460 529 31,000  Level FlightAware
10:00AM 30.4030 -81.5050 North 474 545 31,000 300 Level FlightAware
10:01AM 30.4900 -81.4980 North 475 547 31,400 720 Climbing FlightAware
10:01AM 30.5900 -81.4900 North 477 549 32,100 1,080 Climbing FlightAware
10:02AM 30.6660 -81.4830 North 475 547 32,800 1,200 Climbing FlightAware
10:03AM 30.7560 -81.4760 North 469 540 33,700 1,320 Climbing FlightAware
10:04AM 30.8580 -81.4680 North 462 532 34,800 780 Climbing FlightAware
10:04AM 30.9680 -81.4590 North 459 528 35,000 120 Climbing FlightAware
10:05AM 31.0570 -81.4510 North 459 528 35,000  Level FlightAware
10:06AM 31.1290 -81.4450 North 459 528 35,000  Level FlightAware
10:06AM 31.2010 -81.4400 North 459 528 35,000  Level FlightAware
10:07AM 31.2730 -81.4340 North 459 528 35,000  Level FlightAware
10:11AM 31.7480 -81.3050 13° North 474 545 35,000  Level FlightAware
10:11AM 31.8330 -81.2830 12° North 475 547 35,000  Level FlightAware
10:12AM 31.9180 -81.2600 13° North 473 544 35,000  Level FlightAware
10:13AM 32.0140 -81.2340 13° North 474 545 35,000 240 Level FlightAware
10:13AM 32.1110 -81.2020 16° North 495 570 35,400 600 Climbing FlightAware
10:14AM 32.1960 -81.1240 38° Northeast 548 631 35,900 780 Climbing FlightAware
10:15AM 32.2470 -81.0450 53° Northeast 557 641 36,500 840 Climbing FlightAware
10:15AM 32.3110 -80.9470 52° Northeast 547 629 37,000 300 Climbing FlightAware
10:16AM 32.3880 -80.8280 53° Northeast 550 633 37,000  Level FlightAware
10:17AM 32.4530 -80.7270 53° Northeast 553 636 37,000  Level FlightAware
10:18AM 32.5220 -80.6200 53° Northeast 554 638 37,000  Level FlightAware
10:18AM 32.5850 -80.5230 52° Northeast 554 638 37,000  Level FlightAware
10:19AM 32.6490 -80.4240 52° Northeast 554 638 37,000  Level FlightAware
10:20AM 32.7140 -80.3210 53° Northeast 554 638 37,000  Level FlightAware
10:20AM 32.7790 -80.2200 53° Northeast 554 638 37,000  Level FlightAware
10:21AM 32.8480 -80.1110 53° Northeast 553 636 37,000  Level FlightAware
10:22AM 32.9160 -80.0220 48° Northeast 544 626 37,000  Level FlightAware
10:22AM 32.9910 -79.9440 41° Northeast 534 615 37,000  Level FlightAware
10:23AM 33.0760 -79.8630 39° Northeast 533 613 37,000  Level FlightAware
10:24AM 33.1540 -79.7870 39° Northeast 533 613 37,000  Level FlightAware
10:24AM 33.2290 -79.7140 39° Northeast 534 615 37,000  Level FlightAware
10:25AM 33.3150 -79.6300 39° Northeast 536 617 37,000  Level FlightAware
10:26AM 33.3930 -79.5550 39° Northeast 539 620 37,000  Level FlightAware
10:27AM 33.4830 -79.4660 40° Northeast 542 624 37,000  Level FlightAware
10:27AM 33.5600 -79.3910 39° Northeast 545 627 37,000  Level FlightAware
10:28AM 33.6480 -79.3040 39° Northeast 549 632 37,000  Level FlightAware
10:29AM 33.7260 -79.2270 39° Northeast 549 632 37,000  Level FlightAware
10:29AM 33.8150 -79.1390 39° Northeast 550 633 37,000  Level FlightAware
10:30AM 33.8860 -79.0690 39° Northeast 550 633 37,000  Level FlightAware
10:31AM 33.9720 -78.9830 40° Northeast 550 633 37,000  Level FlightAware
10:32AM 34.0570 -78.8980 40° Northeast 548 631 37,000  Level FlightAware
10:32AM 34.1340 -78.8210 40° Northeast 547 629 37,000  Level FlightAware
10:33AM 34.2160 -78.7400 39° Northeast 546 628 37,000  Level FlightAware
10:34AM 34.3150 -78.6410 40° Northeast 546 628 37,000  Level FlightAware
10:35AM 34.3990 -78.5590 39° Northeast 546 628 37,000  Level FlightAware
10:35AM 34.4650 -78.4930 39° Northeast 546 628 37,000  Level FlightAware
10:36AM 34.5320 -78.4280 39° Northeast 546 628 37,000  Level FlightAware
10:37AM 34.5990 -78.3620 39° Northeast 546 628 37,000  Level FlightAware
10:37AM 34.6660 -78.2970 39° Northeast 546 628 37,000  Level FlightAware
10:38AM 34.7320 -78.2310 39° Northeast 546 628 37,000  Level FlightAware
10:39AM 34.8160 -78.1480 39° Northeast 546 628 37,000  Level FlightAware
10:39AM 34.8830 -78.0830 39° Northeast 546 628 37,000  Level FlightAware
10:40AM 34.9490 -78.0170 39° Northeast 546 628 37,000  Level FlightAware
10:41AM 35.0160 -77.9510 39° Northeast 546 628 37,000  Level FlightAware
10:42AM 35.0990 -77.8680 39° Northeast 546 628 37,000  Level FlightAware
10:42AM 35.1660 -77.8020 39° Northeast 546 628 37,000  Level FlightAware
10:43AM 35.2330 -77.7360 39° Northeast 546 628 37,000 -1,680 Level FlightAware
10:44AM 35.4780 -77.4650 42° Northeast 533 613 34,700 -2,100 Descending FlightAware
10:44AM 35.5490 -77.4030 35° Northeast 537 618 34,200 -960 Descending FlightAware
10:45AM 35.6510 -77.3130 36° Northeast 535 616 33,400 -900 Descending FlightAware
10:46AM 35.7140 -77.2580 35° Northeast 533 613 33,000 -300 Descending FlightAware
10:47AM 35.8280 -77.1570 36° Northeast 542 624 33,000  Level FlightAware
10:47AM 35.9040 -77.0900 36° Northeast 535 616 33,000  Level FlightAware
10:48AM 35.9670 -77.0400 33° Northeast 530 610 33,000  Level FlightAware
10:49AM 36.0610 -76.9700 31° Northeast 530 610 33,000  Level FlightAware
10:49AM 36.1330 -76.9170 31° Northeast 530 610 33,000  Level FlightAware
10:50AM 36.2040 -76.8640 31° Northeast 530 610 33,000  Level FlightAware
10:51AM 36.2930 -76.7970 31° Northeast 530 610 33,000  Level FlightAware
10:51AM 36.3650 -76.7440 31° Northeast 530 610 33,000  Level FlightAware
10:53AM 36.6170 -76.5600 30° Northeast 540 621 33,000  Level FlightAware
10:53AM 36.7110 -76.4900 31° Northeast 541 623 33,000 -240 Level FlightAware
10:54AM 36.8070 -76.4180 31° Northeast 542 624 32,700 -720 Descending FlightAware
10:55AM 36.8860 -76.3590 31° Northeast 542 624 32,100 -660 Descending FlightAware
10:56AM 36.9840 -76.2850 31° Northeast 544 626 31,800 -600 Descending FlightAware
10:57AM 37.0970 -76.2000 31° Northeast 545 627 31,100 -1,200 Descending FlightAware
10:58AM 37.2500 -76.0840 31° Northeast 528 608 29,400 -1,380 Descending FlightAware
10:58AM 37.3103 -76.0389 31° Northeast 529 609 29,000 -480 Descending FlightAware ADS-B
10:59AM 37.3748 -75.9898 31° Northeast 523 602 29,000  Level FlightAware ADS-B
10:59AM 37.4374 -75.9420 31° Northeast 525 604 29,000  Level FlightAware ADS-B
11:00AM 37.5079 -75.8881 31° Northeast 528 608 29,000  Level FlightAware ADS-B
11:00AM 37.5730 -75.8381 31° Northeast 529 609 29,000 -900 Level FlightAware ADS-B
11:01AM 37.6388 -75.7874 31° Northeast 532 612 28,100 -2,280 Descending FlightAware ADS-B
11:01AM 37.7032 -75.7380 31° Northeast 535 616 26,700 -2,400 Descending FlightAware ADS-B
11:02AM 37.7658 -75.6897 31° Northeast 521 600 25,700 -1,920 Descending FlightAware ADS-B
11:02AM 37.8286 -75.6413 31° Northeast 508 585 24,800 -1,980 Descending FlightAware ADS-B
11:03AM 37.8897 -75.5938 32° Northeast 496 571 23,700 -2,040 Descending FlightAware ADS-B
11:03AM 37.9500 -75.5471 31° Northeast 488 562 22,700 -1,920 Descending FlightAware ADS-B
11:04AM 38.0069 -75.5029 31° Northeast 472 543 21,800 -1,860 Descending FlightAware ADS-B
11:04AM 38.0423 -75.4754 31° Northeast 466 536 21,200 -1,080 Descending FlightAware ADS-B
11:05AM 38.0885 -75.4440 28° Northeast 443 510 21,000 -720 Descending FlightAware ADS-B
11:05AM 38.1502 -75.4054 26° Northeast 440 506 20,500 -1,920 Descending FlightAware ADS-B
11:06AM 38.2117 -75.3668 26° Northeast 451 519 18,900 -2,520 Descending FlightAware ADS-B
11:06AM 38.2752 -75.3265 26° Northeast 443 510 17,700 -1,800 Descending FlightAware ADS-B
11:07AM 38.3326 -75.2900 27° Northeast 427 491 16,900 -1,680 Descending FlightAware ADS-B
11:07AM 38.3848 -75.2568 26° Northeast 415 478 16,000 -2,040 Descending FlightAware ADS-B
11:08AM 38.4365 -75.2240 26° Northeast 407 468 14,900 -2,100 Descending FlightAware ADS-B
11:08AM 38.4864 -75.1924 26° Northeast 399 459 13,900 -2,100 Descending FlightAware ADS-B
11:09AM 38.5362 -75.1606 27° Northeast 394 453 12,800 -1,920 Descending FlightAware ADS-B
11:09AM 38.5925 -75.1246 27° Northeast 381 438 11,800 -1,680 Descending FlightAware ADS-B
11:10AM 38.6383 -75.0953 27° Northeast 369 425 11,000 -900 Descending FlightAware ADS-B
11:10AM 38.6849 -75.0653 27° Northeast 357 411 10,900 -120 Descending FlightAware ADS-B
11:11AM 38.7318 -75.0352 27° Northeast 355 409 10,900 -120 Level FlightAware ADS-B
11:11AM 38.7763 -75.0067 27° Northeast 356 410 10,800 -420 Descending FlightAware ADS-B
11:12AM 38.8205 -74.9785 26° Northeast 340 391 10,500 -900 Descending FlightAware ADS-B
11:12AM 38.8546 -74.9564 27° Northeast 330 380 10,000 -1,380 Descending FlightAware ADS-B
11:13AM 38.8749 -74.9433 27° Northeast 328 377 9,600 -1,380 Descending FlightAware ADS-B
11:13AM 38.8957 -74.9299 27° Northeast 325 374 9,300 -1,320 Descending FlightAware ADS-B
11:13AM 38.9179 -74.9156 27° Northeast 322 371 8,900 -1,680 Descending FlightAware ADS-B
11:13AM 38.9447 -74.8982 27° Northeast 321 369 8,300 -1,620 Descending FlightAware ADS-B
11:14AM 38.9677 -74.8835 26° Northeast 318 366 7,900 -1,140 Descending FlightAware ADS-B
11:14AM 38.9876 -74.8705 27° Northeast 309 356 7,700 -780 Descending FlightAware ADS-B
11:14AM 39.0075 -74.8576 27° Northeast 301 346 7,500 -780 Descending FlightAware ADS-B
11:14AM 39.0270 -74.8450 27° Northeast 301 346 7,300 -780 Descending FlightAware ADS-B
11:15AM 39.0466 -74.8322 27° Northeast 299 344 7,100 -600 Descending FlightAware ADS-B
11:15AM 39.0654 -74.8201 27° Northeast 293 337 7,000 -600 Descending FlightAware ADS-B
11:15AM 39.0851 -74.8073 27° Northeast 292 336 6,800 -780 Descending FlightAware ADS-B
11:16AM 39.1042 -74.7950 27° Northeast 287 330 6,600 -780 Descending FlightAware ADS-B
11:16AM 39.1228 -74.7831 26° Northeast 287 330 6,400 -780 Descending FlightAware ADS-B
11:16AM 39.1425 -74.7710 25° Northeast 284 327 6,200 -1,260 Descending FlightAware ADS-B
11:16AM 39.1615 -74.7595 25° Northeast 284 327 5,700 -1,620 Descending FlightAware ADS-B
11:17AM 39.1836 -74.7458 26° Northeast 284 327 5,300 -1,320 Descending FlightAware ADS-B
11:17AM 39.2016 -74.7348 25° Northeast 280 322 5,000 -1,320 Descending FlightAware ADS-B
11:17AM 39.2198 -74.7236 25° Northeast 276 318 4,600 -1,320 Descending FlightAware ADS-B
11:17AM 39.2380 -74.7122 26° Northeast 272 313 4,300 -1,200 Descending FlightAware ADS-B
11:18AM 39.2557 -74.7014 25° Northeast 268 308 4,000 -1,320 Descending FlightAware ADS-B
11:18AM 39.2741 -74.6899 26° Northeast 269 310 3,600 -1,620 Descending FlightAware ADS-B
11:18AM 39.2932 -74.6778 26° Northeast 267 307 3,100 -1,320 Descending FlightAware ADS-B
11:19AM 39.3097 -74.6675 26° Northeast 267 307 2,900 -360 Descending FlightAware ADS-B
11:19AM 39.3330 -74.6523 27° Northeast 273 314 2,900 -240 Level FlightAware ADS-B
11:19AM 39.3406 -74.6430 43° Northeast 278 320 2,800 -420 Descending FlightAware ADS-B
11:19AM 39.3454 -74.6343 54° Northeast 277 319 2,800 -600 Level FlightAware ADS-B
11:19AM 39.3554 -74.6133 58° Northeast 270 311 2,600 -600 Descending FlightAware ADS-B
11:20AM 39.3655 -74.5923 58° Northeast 265 305 2,500 -600 Descending FlightAware ADS-B
11:20AM 39.3759 -74.5706 58° Northeast 256 295 2,300 -720 Descending FlightAware ADS-B
11:20AM 39.3809 -74.5596 60° Northeast 250 288 2,200 -720 Descending FlightAware ADS-B
11:20AM 39.3900 -74.5388 60° Northeast 238 274 2,000 -720 Descending FlightAware ADS-B
11:20AM 39.3953 -74.5277 58° Northeast 230 265 1,900 -600 Descending FlightAware ADS-B
11:21AM 39.4017 -74.5165 54° Northeast 219 252 1,800 -660 Descending FlightAware ADS-B
11:21AM 39.4077 -74.5096 42° Northeast 211 243 1,700 -960 Descending FlightAware ADS-B
11:21AM 39.4119 -74.5068 27° Northeast 206 237 1,600 -360 Descending FlightAware ADS-B
11:22AM 39.4450 -74.5050 North 182 209 1,400 -300 Descending FlightAware